createdAt,value
2023-01-25T00:03:06.873Z,264.42
2023-01-25T00:08:13.984Z,263.25
2023-01-25T00:13:21.105Z,264.34
2023-01-25T00:18:28.322Z,263.47
2023-01-25T00:23:35.464Z,262.35
2023-01-25T00:28:42.673Z,262.08
2023-01-25T00:33:49.886Z,262.64
2023-01-25T00:38:57.137Z,263.87
2023-01-25T00:44:04.420Z,261.49
2023-01-25T00:49:11.655Z,263.20
2023-01-25T00:54:18.793Z,262.59
2023-01-25T00:59:26.023Z,262.81
2023-01-25T01:04:33.326Z,262.50
2023-01-25T01:09:40.439Z,263.12
2023-01-25T01:14:47.844Z,264.90
2023-01-25T01:19:55.152Z,264.55
2023-01-25T01:25:02.410Z,264.21
2023-01-25T01:30:09.623Z,264.16
2023-01-25T01:35:16.865Z,264.29
2023-01-25T01:40:24.092Z,264.54
2023-01-25T01:45:31.383Z,264.52
2023-01-25T01:50:38.561Z,264.41
2023-01-25T01:55:45.715Z,264.78
2023-01-25T02:00:52.922Z,265.10
2023-01-25T02:06:00.133Z,264.89
2023-01-25T02:11:07.294Z,264.56
2023-01-25T02:16:14.500Z,264.83
2023-01-25T02:21:21.669Z,264.91
2023-01-25T02:26:28.837Z,264.41
2023-01-25T02:31:36.107Z,265.11
2023-01-25T02:36:43.420Z,264.06
2023-01-25T02:41:50.687Z,264.52
2023-01-25T02:46:57.865Z,264.72
2023-01-25T02:52:05.082Z,264.72
2023-01-25T02:57:12.232Z,265.98
2023-01-25T03:02:19.449Z,265.72
2023-01-25T03:07:26.630Z,266.70
2023-01-25T03:12:33.772Z,266.79
2023-01-25T03:17:40.951Z,266.82
2023-01-25T03:22:48.176Z,267.49
2023-01-25T03:27:55.371Z,267.80
2023-01-25T03:33:02.646Z,267.51
2023-01-25T03:38:09.849Z,268.29
2023-01-25T03:43:17.005Z,268.45
2023-01-25T03:48:24.205Z,269.22
2023-01-25T03:53:31.432Z,268.91
2023-01-25T03:58:38.587Z,269.54
2023-01-25T04:03:45.751Z,269.97
2023-01-25T04:08:52.920Z,269.83
2023-01-25T04:14:00.115Z,269.60
2023-01-25T04:19:07.309Z,269.87
2023-01-25T04:24:14.536Z,270.14
2023-01-25T04:29:31.672Z,270.13
2023-01-25T04:34:28.936Z,270.40
2023-01-25T04:39:36.153Z,270.51
2023-01-25T04:44:43.332Z,270.76
2023-01-25T04:49:50.499Z,271.08
2023-01-25T04:54:57.773Z,271.17
2023-01-25T05:00:04.981Z,271.04
2023-01-25T05:05:12.377Z,271.59
2023-01-25T05:10:19.476Z,271.38
2023-01-25T05:15:26.645Z,272.26
2023-01-25T05:20:33.833Z,272.24
2023-01-25T05:25:41.052Z,272.54
2023-01-25T05:30:48.292Z,272.90
2023-01-25T05:35:55.480Z,273.16
2023-01-25T05:41:02.707Z,273.81
2023-01-25T05:46:10.030Z,274.06
2023-01-25T05:51:17.236Z,274.37
2023-01-25T05:56:24.424Z,275.01
2023-01-25T06:01:31.587Z,274.29
2023-01-25T06:06:38.769Z,274.36
2023-01-25T06:11:45.929Z,273.77
2023-01-25T06:16:53.105Z,273.82
2023-01-25T06:22:00.323Z,273.80
2023-01-25T06:27:07.481Z,274.29
2023-01-25T06:32:14.771Z,273.85
2023-01-25T06:37:21.873Z,273.75
2023-01-25T06:42:29.097Z,272.69
2023-01-25T06:47:36.251Z,272.65
2023-01-25T06:52:43.464Z,272.46
2023-01-25T06:57:50.782Z,272.80
2023-01-25T07:02:57.980Z,272.98
2023-01-25T07:08:05.094Z,273.12
2023-01-25T07:13:12.520Z,273.00
2023-01-25T07:18:19.680Z,273.27
2023-01-25T07:23:26.935Z,273.87
2023-01-25T07:28:34.329Z,274.31
2023-01-25T07:33:41.491Z,274.43
2023-01-25T07:38:48.693Z,274.58
2023-01-25T07:43:55.935Z,274.91
2023-01-25T07:49:03.096Z,274.03
2023-01-25T07:54:10.269Z,274.70
2023-01-25T07:59:17.796Z,274.83
2023-01-25T08:04:24.937Z,274.86
2023-01-25T08:09:32.230Z,274.99
2023-01-25T08:14:39.444Z,275.26
2023-01-25T08:19:46.566Z,275.57
2023-01-25T08:24:53.757Z,275.79
2023-01-25T08:30:00.972Z,276.00
2023-01-25T08:35:09.428Z,276.94
2023-01-25T08:40:16.219Z,277.56
2023-01-25T08:45:23.400Z,278.06
2023-01-25T08:50:30.587Z,278.43
2023-01-25T08:55:37.779Z,278.83
2023-01-25T09:00:44.992Z,279.57
2023-01-25T09:05:52.216Z,280.00
2023-01-25T09:10:59.365Z,280.30
2023-01-25T09:16:06.651Z,280.56
2023-01-25T09:21:13.861Z,280.97
2023-01-25T09:26:21.055Z,281.23
2023-01-25T09:31:28.470Z,281.23
2023-01-25T09:36:35.429Z,281.56
2023-01-25T09:41:42.662Z,282.43
2023-01-25T09:46:49.858Z,282.88
2023-01-25T09:51:56.994Z,282.75
2023-01-25T09:57:04.181Z,282.63
2023-01-25T10:02:11.421Z,283.30
2023-01-25T10:07:18.718Z,283.49
2023-01-25T10:12:25.968Z,283.59
2023-01-25T10:17:33.142Z,283.73
2023-01-25T10:22:40.299Z,283.68
2023-01-25T10:27:47.511Z,285.09
2023-01-25T10:32:56.094Z,286.44
2023-01-25T10:38:01.925Z,286.66
2023-01-25T10:43:09.284Z,286.69
2023-01-25T10:48:16.523Z,286.67
2023-01-25T10:53:23.732Z,286.57
2023-01-25T10:58:30.902Z,287.12
2023-01-25T11:03:38.062Z,287.56
2023-01-25T11:08:45.229Z,288.19
2023-01-25T11:13:52.439Z,288.51
2023-01-25T11:18:59.662Z,289.17
2023-01-25T11:24:06.965Z,289.52
2023-01-25T11:29:14.020Z,289.54
2023-01-25T11:34:21.260Z,290.25
2023-01-25T11:39:28.373Z,290.67
2023-01-25T11:44:35.584Z,290.94
2023-01-25T11:49:42.794Z,291.65
2023-01-25T11:54:49.929Z,292.89
2023-01-25T11:59:57.133Z,293.68
2023-01-25T12:05:12.725Z,294.00
2023-01-25T12:10:11.846Z,294.78
2023-01-25T12:15:18.747Z,295.95
2023-01-25T12:20:26.057Z,296.35
2023-01-25T12:25:33.185Z,297.31
2023-01-25T12:30:40.512Z,297.57
2023-01-25T12:35:47.754Z,297.93
2023-01-25T12:40:54.946Z,298.62
2023-01-25T12:46:02.232Z,298.92
2023-01-25T12:51:09.521Z,299.18
2023-01-25T12:56:16.741Z,300.76
2023-01-25T13:01:23.951Z,300.78
2023-01-25T13:06:31.141Z,301.01
2023-01-25T13:11:38.295Z,301.27
2023-01-25T13:16:45.481Z,301.49
2023-01-25T13:21:52.738Z,302.59
2023-01-25T13:26:59.934Z,303.46
2023-01-25T13:32:07.150Z,303.48
2023-01-25T13:37:14.344Z,303.30
2023-01-25T13:42:21.502Z,303.06
2023-01-25T13:47:28.681Z,303.18
2023-01-25T13:52:35.921Z,303.43
2023-01-25T13:57:43.059Z,303.88
2023-01-25T14:02:50.264Z,303.86
2023-01-25T14:07:57.437Z,304.32
2023-01-25T14:13:04.599Z,304.65
2023-01-25T14:18:11.881Z,304.90
2023-01-25T14:23:19.089Z,305.47
2023-01-25T14:28:26.280Z,305.96
2023-01-25T14:33:33.558Z,305.81
2023-01-25T14:38:40.865Z,306.08
2023-01-25T14:43:48.046Z,305.77
2023-01-25T14:48:55.236Z,306.40
2023-01-25T14:54:02.471Z,307.30
2023-01-25T14:59:09.584Z,307.62
2023-01-25T15:04:16.758Z,307.67
2023-01-25T15:09:24.008Z,307.80
2023-01-25T15:14:31.159Z,308.47
2023-01-25T15:19:38.328Z,308.24
2023-01-25T15:24:50.306Z,308.77
2023-01-25T15:29:52.691Z,308.57
2023-01-25T15:34:59.928Z,308.70
2023-01-25T15:40:07.484Z,309.12
2023-01-25T15:45:14.330Z,309.38
2023-01-25T15:50:21.775Z,310.17
2023-01-25T15:55:29.162Z,310.40
2023-01-25T16:00:36.386Z,310.66
2023-01-25T16:05:43.589Z,310.96
2023-01-25T16:10:50.889Z,311.01
2023-01-25T16:15:58.109Z,311.10
2023-01-25T16:21:05.347Z,311.33
2023-01-25T16:26:12.944Z,311.56
2023-01-25T16:31:32.018Z,311.98
2023-01-25T16:36:27.842Z,312.62
2023-01-25T16:41:36.085Z,312.65
2023-01-25T16:46:43.482Z,313.11
2023-01-25T16:51:51.187Z,312.43
2023-01-25T16:56:59.933Z,312.89
2023-01-25T17:02:06.155Z,313.40
2023-01-25T17:07:13.626Z,313.78
2023-01-25T17:12:21.277Z,314.29
2023-01-25T17:17:28.855Z,315.01
2023-01-25T17:22:36.670Z,315.44
2023-01-25T17:27:44.426Z,315.84
2023-01-25T17:32:51.971Z,316.85
2023-01-25T17:37:59.528Z,317.91
2023-01-25T17:43:07.150Z,318.25
2023-01-25T17:48:14.949Z,317.66
2023-01-25T17:53:22.565Z,317.64
2023-01-25T17:58:30.207Z,318.51
2023-01-25T18:03:37.589Z,319.65
2023-01-25T18:08:44.862Z,320.18
2023-01-25T18:13:52.442Z,320.46
2023-01-25T18:18:59.975Z,320.44
2023-01-25T18:24:07.513Z,321.15
2023-01-25T18:29:15.172Z,321.26
2023-01-25T18:34:22.758Z,321.97
2023-01-25T18:39:30.487Z,321.85
2023-01-25T18:44:38.116Z,322.24
2023-01-25T18:49:46.232Z,323.31
2023-01-25T18:54:53.428Z,323.83
2023-01-25T19:00:00.972Z,324.27
2023-01-25T19:05:09.204Z,324.54
2023-01-25T19:10:16.259Z,325.87
2023-01-25T19:15:23.799Z,326.21
2023-01-25T19:20:31.401Z,326.85
2023-01-25T19:25:38.964Z,327.05
2023-01-25T19:30:47.831Z,327.52
2023-01-25T19:35:55.681Z,327.38
2023-01-25T19:41:04.302Z,327.69
2023-01-25T19:46:12.074Z,327.94
2023-01-25T19:51:20.558Z,328.55
2023-01-25T19:56:28.174Z,328.86
2023-01-25T20:01:36.067Z,329.77
2023-01-25T20:06:44.635Z,329.97
2023-01-25T20:11:52.065Z,329.95
2023-01-25T20:16:59.660Z,330.34
2023-01-25T20:22:07.265Z,330.87
2023-01-25T20:27:14.883Z,331.24
2023-01-25T20:32:32.299Z,331.73
2023-01-25T20:37:30.177Z,332.70
2023-01-25T20:42:37.832Z,333.26
2023-01-25T20:47:45.467Z,333.24
2023-01-25T20:52:53.057Z,333.50
2023-01-25T20:58:00.479Z,333.37
2023-01-25T21:03:08.014Z,332.95
2023-01-25T21:08:15.599Z,333.57
2023-01-25T21:13:23.307Z,334.08
2023-01-25T21:18:30.853Z,334.68
2023-01-25T21:23:38.144Z,334.56
2023-01-25T21:28:45.342Z,335.13
2023-01-25T21:33:52.663Z,335.29
2023-01-25T21:39:01.316Z,335.61
2023-01-25T21:44:08.637Z,336.18
2023-01-25T21:49:16.127Z,336.39
2023-01-25T21:54:23.476Z,336.47
2023-01-25T21:59:30.669Z,336.99
2023-01-25T22:04:37.835Z,337.41
2023-01-25T22:09:44.999Z,337.30
2023-01-25T22:14:52.195Z,336.86
2023-01-25T22:19:59.477Z,337.32
2023-01-25T22:25:06.668Z,338.03
2023-01-25T22:30:14.064Z,338.71
2023-01-25T22:35:21.054Z,339.19
2023-01-25T22:40:28.203Z,339.47
2023-01-25T22:45:35.397Z,339.60
2023-01-25T22:50:42.685Z,339.25
2023-01-25T22:55:49.859Z,339.91
2023-01-25T23:00:57.051Z,340.54
2023-01-25T23:06:04.322Z,340.64
2023-01-25T23:11:11.527Z,341.14
2023-01-25T23:16:18.791Z,341.62
2023-01-25T23:21:26.017Z,342.35
2023-01-25T23:26:33.178Z,342.91
2023-01-25T23:31:40.479Z,343.65
2023-01-25T23:36:47.573Z,343.89
2023-01-25T23:41:54.722Z,344.27
2023-01-25T23:47:01.906Z,344.37
2023-01-25T23:52:09.153Z,345.09
2023-01-25T23:57:16.285Z,345.42
